Time;durP1;ratioP1;P1;durP2;ratioP2;P2;SDS_P1;SDS_P2;PMS_P1;PMS_P2;Temp;Humidity;BMP_temperature;BMP_pressure;BME280_temperature;BME280_humidity;BME280_pressure;Samples;Min_cycle;Max_cycle;Signal;HPM_P1;HPM_P2
2022/10/27 00:00:10;;;;;;;8.70;5.60;;;;;;;13.92;93.10;100976.47;5016124;28;20579;-79
2022/10/27 00:02:37;;;;;;;8.07;5.70;;;;;;;13.84;93.41;100976.31;5011242;28;20471;-79
2022/10/27 00:05:04;;;;;;;6.80;5.47;;;;;;;13.73;93.32;100973.78;5022110;28;20890;-79
2022/10/27 00:07:32;;;;;;;9.43;5.77;;;;;;;13.66;93.92;100973.53;5020104;28;20503;-79
2022/10/27 00:09:58;;;;;;;8.20;6.47;;;;;;;13.55;93.89;100973.66;5022003;28;20570;-79
2022/10/27 00:12:25;;;;;;;7.67;5.37;;;;;;;13.49;94.09;100977.78;5019322;28;20546;-80
2022/10/27 00:14:52;;;;;;;6.90;6.20;;;;;;;13.52;94.80;100972.13;5020663;28;20533;-80
2022/10/27 00:17:18;;;;;;;7.00;5.43;;;;;;;13.55;94.64;100976.34;5001773;28;20907;-79
2022/10/27 00:19:45;;;;;;;9.17;6.00;;;;;;;13.57;95.02;100969.00;5001909;28;20491;-79
2022/10/27 00:22:11;;;;;;;10.80;5.43;;;;;;;13.67;94.83;100971.69;5001941;28;20539;-79
2022/10/27 00:24:39;;;;;;;6.30;5.03;;;;;;;13.47;94.98;100973.53;5012638;28;20472;-78
2022/10/27 00:27:07;;;;;;;7.10;5.00;;;;;;;13.44;95.32;100981.88;5004892;28;20650;-79
2022/10/27 00:29:33;;;;;;;11.63;5.40;;;;;;;13.42;95.39;100982.03;5007368;28;20531;-79
2022/10/27 00:32:00;;;;;;;9.80;4.77;;;;;;;13.41;95.55;100980.31;5018538;28;20490;-79
2022/10/27 00:34:27;;;;;;;7.47;5.27;;;;;;;13.57;95.70;100979.75;5002243;28;20511;-79
2022/10/27 00:36:53;;;;;;;8.53;5.80;;;;;;;13.56;95.47;100986.97;5010806;28;20510;-79
2022/10/27 00:39:20;;;;;;;8.70;5.10;;;;;;;13.56;95.67;100988.81;5015215;28;20460;-79
2022/10/27 00:41:48;;;;;;;10.50;4.93;;;;;;;13.59;95.41;100995.72;5004725;28;20482;-78
2022/10/27 00:44:30;;;;;;;9.03;5.70;;;;;;;13.59;95.49;101003.78;5002024;28;20471;-79
2022/10/27 00:46:58;;;;;;;16.27;5.87;;;;;;;13.53;95.51;101002.50;5003197;28;20551;-79
2022/10/27 00:49:28;;;;;;;8.00;5.40;;;;;;;13.53;95.38;101003.34;5020893;28;20528;-79
2022/10/27 00:51:58;;;;;;;10.13;5.43;;;;;;;13.57;95.54;101003.91;5019276;28;20507;-80
2022/10/27 00:54:28;;;;;;;8.80;5.83;;;;;;;13.62;95.35;101011.56;5014383;28;20527;-81
2022/10/27 00:56:57;;;;;;;7.33;5.90;;;;;;;13.56;95.24;101008.44;5006655;28;20558;-80
2022/10/27 00:59:24;;;;;;;11.53;5.80;;;;;;;13.53;95.00;101016.78;5006318;28;20929;-80
2022/10/27 01:01:51;;;;;;;7.00;5.53;;;;;;;13.55;95.19;101014.81;5001476;28;20496;-80
2022/10/27 01:04:20;;;;;;;10.43;5.53;;;;;;;13.54;95.08;101021.19;5002136;28;20957;-81
2022/10/27 01:06:47;;;;;;;6.60;5.90;;;;;;;13.38;95.01;101026.25;5016740;28;20517;-81
2022/10/27 01:09:14;;;;;;;6.50;5.73;;;;;;;13.26;95.08;101024.66;5001999;28;20480;-81
2022/10/27 01:11:45;;;;;;;7.17;5.23;;;;;;;13.25;95.00;101026.50;5015636;28;20610;-79
2022/10/27 01:17:02;;;;;;;10.50;5.60;;;;;;;13.24;96.04;101032.00;5001501;28;20492;-79
2022/10/27 01:19:51;;;;;;;8.33;5.70;;;;;;;13.25;96.60;101033.72;5016483;28;20477;-79
2022/10/27 01:22:22;;;;;;;8.63;6.20;;;;;;;13.33;96.64;101031.19;4996925;28;20577;-79
2022/10/27 01:25:05;;;;;;;7.83;6.30;;;;;;;13.40;96.34;101031.47;5003353;28;20560;-79
2022/10/27 01:27:46;;;;;;;11.17;7.00;;;;;;;13.59;95.96;101025.28;5001020;28;20895;-79
2022/10/27 01:30:15;;;;;;;8.53;5.97;;;;;;;13.54;95.34;101023.00;5007736;28;20517;-78
2022/10/27 01:32:50;;;;;;;8.70;6.33;;;;;;;13.52;95.34;101019.63;5002290;28;20503;-79
2022/10/27 01:35:22;;;;;;;12.80;6.50;;;;;;;13.49;95.29;101026.13;4986192;28;20485;-79
2022/10/27 01:37:53;;;;;;;7.20;6.07;;;;;;;13.43;95.39;101031.22;5009751;28;20571;-79
2022/10/27 01:40:23;;;;;;;7.70;5.90;;;;;;;13.46;95.34;101026.41;5014250;28;20471;-79
2022/10/27 01:42:51;;;;;;;9.37;5.63;;;;;;;13.34;95.11;101030.22;5006271;28;20543;-80
2022/10/27 01:45:22;;;;;;;8.17;5.80;;;;;;;13.25;95.03;101031.03;5012044;28;20487;-80
2022/10/27 01:47:50;;;;;;;8.50;6.07;;;;;;;13.32;95.36;101026.81;5002085;28;20462;-79
2022/10/27 01:50:18;;;;;;;9.20;5.70;;;;;;;13.30;95.38;101029.59;5015153;28;20463;-79
2022/10/27 01:52:46;;;;;;;5.97;5.37;;;;;;;13.22;95.34;101034.81;5012862;28;20954;-78
2022/10/27 01:55:17;;;;;;;8.73;6.10;;;;;;;13.25;95.79;101036.41;5012593;28;20546;-79
2022/10/27 01:57:59;;;;;;;7.23;5.97;;;;;;;13.19;95.84;101032.41;5005236;28;20545;-79
2022/10/27 02:00:25;;;;;;;9.53;5.70;;;;;;;13.19;96.15;101032.41;5005975;28;20785;-79
2022/10/27 02:02:57;;;;;;;9.23;6.50;;;;;;;13.14;96.12;101031.97;5023106;28;20483;-80
2022/10/27 02:05:27;;;;;;;9.13;5.50;;;;;;;13.11;96.48;101029.59;5007598;28;20460;-80
2022/10/27 02:07:57;;;;;;;7.30;5.47;;;;;;;13.01;96.46;101034.91;5022183;28;20845;-80
2022/10/27 02:10:25;;;;;;;8.60;5.53;;;;;;;12.77;97.29;101041.47;5010736;28;20493;-80
2022/10/27 02:12:52;;;;;;;11.80;6.43;;;;;;;12.68;96.72;101039.59;5024853;28;20677;-80
2022/10/27 02:15:25;;;;;;;7.53;6.00;;;;;;;12.61;97.25;101038.44;5008055;28;20452;-80
2022/10/27 02:17:55;;;;;;;12.60;6.37;;;;;;;12.59;97.44;101033.22;4988598;28;20626;-81
2022/10/27 02:20:24;;;;;;;11.60;6.80;;;;;;;12.55;97.03;101047.88;5007122;28;20483;-80
2022/10/27 02:22:52;;;;;;;8.10;6.87;;;;;;;12.60;97.74;101042.97;5006230;28;20508;-80
2022/10/27 02:25:21;;;;;;;10.37;7.00;;;;;;;12.61;97.83;101041.13;5007796;28;20480;-79
2022/10/27 02:27:48;;;;;;;6.93;6.23;;;;;;;12.60;98.13;101045.66;5010575;28;20509;-79
2022/10/27 02:30:15;;;;;;;10.57;6.10;;;;;;;12.65;98.33;101041.72;5008538;28;20511;-80
2022/10/27 02:32:42;;;;;;;8.93;6.20;;;;;;;12.59;98.84;101037.75;5014257;28;20474;-79
2022/10/27 02:35:11;;;;;;;8.50;6.20;;;;;;;12.43;98.74;101040.91;5022876;28;20486;-79
2022/10/27 02:37:39;;;;;;;8.67;5.97;;;;;;;12.47;98.87;101044.19;5008627;28;20507;-78
2022/10/27 02:40:07;;;;;;;6.67;5.07;;;;;;;12.40;98.95;101042.00;5004764;28;20514;-79
2022/10/27 02:42:34;;;;;;;9.53;5.90;;;;;;;12.24;99.21;101042.50;5019383;28;20490;-79
2022/10/27 02:45:01;;;;;;;7.80;6.23;;;;;;;12.18;99.86;101042.16;5010278;28;20478;-79
2022/10/27 02:47:27;;;;;;;9.10;6.20;;;;;;;12.14;100.00;101040.75;5022865;28;20514;-79
2022/10/27 02:49:54;;;;;;;7.70;5.37;;;;;;;12.32;100.00;101049.03;5008881;28;20459;-79
2022/10/27 02:52:22;;;;;;;7.50;4.87;;;;;;;12.27;100.00;101046.72;5005176;28;20931;-79
2022/10/27 02:54:48;;;;;;;12.17;6.20;;;;;;;12.34;99.91;101050.59;5004050;28;20468;-79
2022/10/27 02:57:16;;;;;;;6.83;5.77;;;;;;;12.26;99.86;101061.13;5007524;28;20887;-78
2022/10/27 02:59:42;;;;;;;8.40;5.37;;;;;;;12.19;100.00;101055.44;5008060;28;20465;-79
2022/10/27 03:02:09;;;;;;;7.60;6.30;;;;;;;12.16;100.00;101052.19;5006440;28;20503;-79
2022/10/27 03:04:36;;;;;;;8.50;6.20;;;;;;;12.15;100.00;101063.88;5018643;28;20944;-79
2022/10/27 03:07:03;;;;;;;9.30;6.40;;;;;;;12.21;100.00;101049.94;5022297;28;20515;-78
2022/10/27 03:09:31;;;;;;;9.87;6.77;;;;;;;12.18;100.00;101050.22;5023009;28;20502;-80
2022/10/27 03:11:57;;;;;;;15.37;6.67;;;;;;;12.23;100.00;101045.31;5004990;28;20495;-79
2022/10/27 03:14:24;;;;;;;8.93;5.83;;;;;;;12.09;100.00;101048.31;5005804;28;20467;-80
2022/10/27 03:16:50;;;;;;;6.57;5.90;;;;;;;12.20;100.00;101050.94;5003271;28;20575;-79
2022/10/27 03:19:17;;;;;;;13.23;6.67;;;;;;;12.12;100.00;101053.44;5003692;28;20547;-78
2022/10/27 03:21:44;;;;;;;8.93;6.80;;;;;;;12.08;100.00;101057.34;5003434;28;20510;-79
2022/10/27 03:24:10;;;;;;;11.70;6.20;;;;;;;12.17;100.00;101052.06;5003623;28;20476;-80
2022/10/27 03:26:39;;;;;;;11.17;6.63;;;;;;;11.98;100.00;101051.94;5003300;28;20519;-80
2022/10/27 03:29:05;;;;;;;8.90;6.77;;;;;;;12.11;100.00;101051.72;5001212;28;20479;-80
2022/10/27 03:31:32;;;;;;;10.30;6.53;;;;;;;12.20;100.00;101059.84;4995115;28;20539;-80
2022/10/27 03:33:59;;;;;;;8.10;6.90;;;;;;;12.26;100.00;101065.66;5003082;28;20483;-80
2022/10/27 03:36:25;;;;;;;9.90;6.67;;;;;;;12.24;100.00;101073.81;5013563;28;20518;-80
2022/10/27 03:38:53;;;;;;;7.33;6.63;;;;;;;12.31;100.00;101066.09;5007010;28;20578;-80
2022/10/27 03:41:19;;;;;;;7.73;6.50;;;;;;;12.32;100.00;101068.63;5002947;28;20472;-79
2022/10/27 03:43:47;;;;;;;13.20;8.07;;;;;;;12.21;100.00;101061.53;5003162;28;20487;-79
2022/10/27 03:46:14;;;;;;;14.17;8.73;;;;;;;12.10;100.00;101066.09;5018137;28;20507;-79
2022/10/27 03:48:41;;;;;;;9.80;7.87;;;;;;;12.17;100.00;101070.81;5002299;28;20479;-79
2022/10/27 03:51:08;;;;;;;7.47;6.73;;;;;;;12.19;100.00;101066.16;5010502;28;20511;-79
2022/10/27 03:53:35;;;;;;;10.30;7.90;;;;;;;12.10;100.00;101061.59;5015757;28;21178;-80
2022/10/27 03:56:02;;;;;;;9.00;7.07;;;;;;;12.08;100.00;101070.72;5002542;28;20508;-79
2022/10/27 03:58:28;;;;;;;15.13;7.77;;;;;;;12.04;100.00;101071.00;5006012;28;20547;-80
2022/10/27 04:01:00;;;;;;;10.07;7.70;;;;;;;12.06;100.00;101070.88;5008869;28;20645;-80
2022/10/27 04:03:27;;;;;;;13.83;8.20;;;;;;;11.97;100.00;101067.13;5000894;28;20504;-80
2022/10/27 04:05:54;;;;;;;11.03;8.47;;;;;;;11.86;100.00;101068.00;5004359;28;20522;-81
2022/10/27 04:08:20;;;;;;;9.50;7.87;;;;;;;11.76;100.00;101064.41;5002591;28;20487;-81
2022/10/27 04:10:47;;;;;;;12.73;8.63;;;;;;;11.79;100.00;101063.31;5005838;28;20577;-80
2022/10/27 04:13:13;;;;;;;14.93;8.90;;;;;;;11.75;100.00;101065.41;5022521;28;20471;-80
2022/10/27 04:15:40;;;;;;;8.73;7.83;;;;;;;11.72;100.00;101054.94;5016986;28;20520;-81
2022/10/27 04:18:09;;;;;;;12.37;8.50;;;;;;;11.71;100.00;101060.41;5006213;28;20631;-80
2022/10/27 04:20:36;;;;;;;12.73;8.30;;;;;;;11.60;100.00;101064.00;5001240;28;20563;-80
2022/10/27 04:23:02;;;;;;;11.00;8.23;;;;;;;11.55;100.00;101067.03;5009833;28;20452;-80
2022/10/27 04:25:29;;;;;;;16.07;8.50;;;;;;;11.25;100.00;101065.91;4999775;28;21175;-81
2022/10/27 04:28:01;;;;;;;13.73;9.97;;;;;;;11.36;100.00;101069.53;5000416;28;20539;-80
2022/10/27 04:30:28;;;;;;;11.13;9.80;;;;;;;11.30;100.00;101065.50;4997346;28;20496;-80
2022/10/27 04:32:55;;;;;;;10.47;8.50;;;;;;;11.38;100.00;101070.25;5001914;28;20460;-80
2022/10/27 04:35:22;;;;;;;10.27;7.87;;;;;;;11.34;100.00;101074.19;4999025;28;20543;-80
2022/10/27 04:37:49;;;;;;;10.63;7.33;;;;;;;11.31;100.00;101068.06;5001584;28;20479;-81
2022/10/27 04:40:16;;;;;;;8.50;7.20;;;;;;;11.23;100.00;101067.00;5004420;28;20507;-82
2022/10/27 04:42:45;;;;;;;29.10;9.93;;;;;;;11.28;100.00;101062.13;5001193;28;20941;-81
2022/10/27 04:45:12;;;;;;;8.37;6.87;;;;;;;11.21;100.00;101069.78;5001963;28;21012;-81
2022/10/27 04:47:39;;;;;;;9.03;7.40;;;;;;;11.19;100.00;101065.56;5002129;28;20421;-82
2022/10/27 04:50:06;;;;;;;10.33;7.97;;;;;;;11.14;100.00;101067.75;5011923;28;20452;-81
2022/10/27 04:52:36;;;;;;;12.90;7.70;;;;;;;11.11;100.00;101068.88;5018999;28;20480;-81
2022/10/27 04:55:06;;;;;;;9.87;8.27;;;;;;;11.16;100.00;101066.63;5012677;28;20463;-81
2022/10/27 04:57:32;;;;;;;10.33;7.90;;;;;;;11.10;100.00;101062.63;5000845;28;20509;-82
2022/10/27 04:59:59;;;;;;;9.47;7.97;;;;;;;11.14;100.00;101052.53;5001774;28;20462;-81
2022/10/27 05:02:26;;;;;;;13.40;7.90;;;;;;;11.07;100.00;101056.69;5011679;28;20624;-82
2022/10/27 05:04:52;;;;;;;8.57;7.40;;;;;;;11.02;100.00;101056.22;4999150;28;20484;-82
2022/10/27 05:07:19;;;;;;;11.97;7.10;;;;;;;11.05;100.00;101058.63;5001314;28;20519;-83
2022/10/27 05:09:47;;;;;;;8.30;7.50;;;;;;;11.05;100.00;101047.94;5000921;28;20504;-80
2022/10/27 05:12:13;;;;;;;8.80;7.87;;;;;;;11.09;100.00;101054.72;5000838;28;20518;-79
2022/10/27 05:14:40;;;;;;;16.37;8.10;;;;;;;11.10;100.00;101053.78;5001573;28;20444;-80
2022/10/27 05:17:07;;;;;;;10.20;8.43;;;;;;;11.15;100.00;101058.75;5001255;28;20483;-79
2022/10/27 05:19:33;;;;;;;15.43;8.67;;;;;;;11.03;100.00;101066.78;5000097;28;20558;-80
2022/10/27 05:22:00;;;;;;;15.60;8.20;;;;;;;11.05;100.00;101064.00;5006737;28;20486;-79
2022/10/27 05:24:27;;;;;;;12.27;8.50;;;;;;;11.00;100.00;101066.19;5019569;28;20478;-79
2022/10/27 05:26:55;;;;;;;9.97;9.07;;;;;;;10.97;100.00;101061.06;5001327;28;20507;-79
2022/10/27 05:29:21;;;;;;;12.10;8.60;;;;;;;10.98;100.00;101063.63;5013467;28;20487;-79
2022/10/27 05:31:48;;;;;;;12.50;7.87;;;;;;;10.96;100.00;101064.75;5004021;28;20478;-80
2022/10/27 05:34:15;;;;;;;10.77;9.70;;;;;;;10.95;100.00;101063.03;5004030;28;20521;-80
2022/10/27 05:36:41;;;;;;;13.80;9.10;;;;;;;10.91;100.00;101063.25;5004520;28;20992;-80
2022/10/27 05:39:08;;;;;;;10.30;8.80;;;;;;;10.95;100.00;101063.88;5004495;28;20560;-80
2022/10/27 05:41:34;;;;;;;9.77;8.77;;;;;;;11.03;100.00;101060.59;5003215;28;20499;-81
2022/10/27 05:44:03;;;;;;;13.03;9.40;;;;;;;11.00;100.00;101059.00;5004644;28;20470;-80
2022/10/27 05:46:29;;;;;;;13.60;9.00;;;;;;;10.99;100.00;101051.97;5004280;28;20480;-80
2022/10/27 05:48:56;;;;;;;10.90;7.93;;;;;;;10.95;100.00;101061.19;5003234;28;20455;-80
2022/10/27 05:51:23;;;;;;;18.47;8.97;;;;;;;10.96;100.00;101052.22;5003847;28;20513;-80
2022/10/27 05:53:50;;;;;;;13.33;8.17;;;;;;;10.95;100.00;101049.66;5004515;28;20511;-80
2022/10/27 05:56:17;;;;;;;12.60;9.23;;;;;;;10.98;100.00;101052.94;5003527;28;20537;-80
2022/10/27 05:58:44;;;;;;;9.87;8.87;;;;;;;10.99;100.00;101054.63;5004180;28;20786;-80
2022/10/27 06:01:12;;;;;;;13.60;10.23;;;;;;;10.89;100.00;101057.19;5002136;28;20484;-80
2022/10/27 06:03:38;;;;;;;12.27;9.07;;;;;;;10.95;100.00;101063.88;5002307;28;20523;-80
2022/10/27 06:06:34;;;;;;;10.70;9.70;;;;;;;10.90;100.00;101058.03;5003192;28;20496;-80
2022/10/27 06:09:01;;;;;;;11.70;9.07;;;;;;;10.96;100.00;101064.75;4977790;28;21037;-79
2022/10/27 06:11:27;;;;;;;12.43;10.00;;;;;;;10.96;100.00;101067.41;5003010;28;20487;-79
2022/10/27 06:13:54;;;;;;;12.60;10.00;;;;;;;10.99;100.00;101069.81;5004440;28;20440;-79
2022/10/27 06:16:24;;;;;;;12.03;9.00;;;;;;;11.01;100.00;101063.38;5003367;28;20904;-80
2022/10/27 06:18:51;;;;;;;12.13;10.93;;;;;;;11.08;100.00;101069.09;5002017;28;20480;-79
2022/10/27 06:21:18;;;;;;;17.00;11.10;;;;;;;11.19;100.00;101058.38;5002523;28;20518;-79
2022/10/27 06:23:47;;;;;;;11.60;10.10;;;;;;;11.17;100.00;101054.13;5004405;28;20722;-79
2022/10/27 06:26:14;;;;;;;17.10;11.43;;;;;;;11.15;100.00;101067.63;5002567;28;20514;-79
2022/10/27 06:28:40;;;;;;;11.27;9.63;;;;;;;11.33;100.00;101065.28;5003220;28;20619;-78
2022/10/27 06:31:07;;;;;;;11.73;10.53;;;;;;;11.39;100.00;101063.94;5002469;28;20587;-79
2022/10/27 06:33:35;;;;;;;13.30;10.23;;;;;;;11.41;100.00;101060.16;5002185;28;20452;-78
2022/10/27 06:36:02;;;;;;;17.00;9.83;;;;;;;11.41;100.00;101072.69;5002545;28;20695;-78
2022/10/27 06:38:28;;;;;;;16.70;10.77;;;;;;;11.64;100.00;101087.69;5002869;28;20523;-79
2022/10/27 06:40:55;;;;;;;11.13;10.00;;;;;;;11.74;100.00;101095.84;5001064;28;20503;-79
2022/10/27 06:43:22;;;;;;;13.57;10.10;;;;;;;11.76;100.00;101095.72;5003984;28;20450;-79
2022/10/27 06:45:49;;;;;;;12.93;11.20;;;;;;;11.66;100.00;101092.94;5003326;28;20479;-84
2022/10/27 06:48:16;;;;;;;12.90;10.37;;;;;;;11.72;100.00;101092.44;5006103;28;20429;-85
2022/10/27 06:50:44;;;;;;;13.10;11.17;;;;;;;11.86;100.00;101091.28;5004908;28;21003;-86
2022/10/27 06:53:11;;;;;;;12.77;10.33;;;;;;;11.98;100.00;101094.81;5005751;28;20576;-85
2022/10/27 06:55:37;;;;;;;15.93;10.70;;;;;;;12.15;99.90;101098.72;5004659;28;20530;-85
2022/10/27 06:58:04;;;;;;;17.37;10.60;;;;;;;12.18;99.31;101101.16;5005054;28;20508;-85
2022/10/27 07:00:31;;;;;;;13.27;11.27;;;;;;;12.24;98.41;101095.28;5003830;28;20808;-85
2022/10/27 07:02:58;;;;;;;14.60;11.33;;;;;;;12.34;98.86;101093.50;5004018;28;20543;-86
2022/10/27 07:05:24;;;;;;;16.17;11.90;;;;;;;12.53;98.16;101087.38;5003165;28;20489;-85
2022/10/27 07:07:53;;;;;;;12.80;11.10;;;;;;;12.69;97.02;101094.09;5004493;28;20445;-85
2022/10/27 07:10:20;;;;;;;16.50;11.37;;;;;;;12.76;96.13;101095.28;5001966;28;20504;-86
2022/10/27 07:12:54;;;;;;;12.27;10.77;;;;;;;12.92;95.32;101097.47;5004529;28;20467;-87
2022/10/27 07:15:22;;;;;;;14.60;10.50;;;;;;;13.17;93.82;101093.44;5003188;28;20444;-85
2022/10/27 07:17:48;;;;;;;13.67;10.50;;;;;;;13.36;92.26;101098.91;5002737;28;20496;-83
2022/10/27 07:20:15;;;;;;;15.97;11.37;;;;;;;13.57;91.67;101092.56;5001848;28;20540;-82
2022/10/27 07:22:42;;;;;;;13.83;10.57;;;;;;;13.82;90.64;101103.78;5003046;28;20455;-82
2022/10/27 07:25:10;;;;;;;10.60;9.57;;;;;;;14.08;88.79;101098.69;5001951;28;20471;-83
2022/10/27 07:27:36;;;;;;;11.00;9.00;;;;;;;14.31;87.32;101102.75;5003436;28;20439;-85
2022/10/27 07:30:03;;;;;;;9.97;8.90;;;;;;;14.49;85.17;101102.00;5003198;28;20463;-87
2022/10/27 07:32:30;;;;;;;16.43;9.03;;;;;;;14.85;82.60;101102.22;5002187;28;20503;-86
2022/10/27 07:34:56;;;;;;;10.73;8.27;;;;;;;15.25;80.73;101104.56;5002808;28;20491;-84
2022/10/27 07:37:23;;;;;;;10.50;7.47;;;;;;;15.84;77.50;101106.09;5004100;28;20858;-82
2022/10/27 07:39:50;;;;;;;8.17;6.60;;;;;;;16.52;74.30;101102.75;5001353;28;20499;-85
2022/10/27 07:42:18;;;;;;;8.13;6.87;;;;;;;16.05;75.07;101105.78;5002243;28;20472;-86
2022/10/27 07:44:44;;;;;;;7.97;6.90;;;;;;;16.01;73.75;101105.25;5002740;28;20451;-85
2022/10/27 07:47:11;;;;;;;7.93;6.43;;;;;;;15.46;76.95;101108.03;5001360;28;20699;-84
2022/10/27 07:49:38;;;;;;;9.70;7.13;;;;;;;15.17;79.14;101111.72;5002488;28;20455;-82
2022/10/27 07:52:04;;;;;;;12.73;7.40;;;;;;;14.77;80.37;101105.66;5002607;28;20586;-86
2022/10/27 07:54:33;;;;;;;9.43;6.83;;;;;;;15.49;78.82;101108.56;5002034;28;20510;-86
2022/10/27 07:57:00;;;;;;;8.50;7.60;;;;;;;15.52;78.14;101105.56;5001883;28;20490;-84
2022/10/27 07:59:28;;;;;;;10.00;6.33;;;;;;;15.20;79.24;101114.97;5003962;28;21171;-87
2022/10/27 08:01:54;;;;;;;8.20;7.00;;;;;;;15.93;76.49;101097.06;5005322;28;20469;-88
2022/10/27 08:04:21;;;;;;;8.90;6.60;;;;;;;16.87;72.54;101101.81;5006278;28;20479;-87
2022/10/27 08:06:48;;;;;;;8.87;6.37;;;;;;;17.91;68.29;101104.34;5006226;28;20476;-86
2022/10/27 08:09:15;;;;;;;8.70;5.43;;;;;;;18.55;64.22;101104.50;5005851;28;20520;-87
2022/10/27 08:11:41;;;;;;;7.07;6.00;;;;;;;18.72;63.39;101102.59;5002776;28;20485;-84
2022/10/27 08:14:08;;;;;;;6.73;5.30;;;;;;;19.62;61.79;101101.41;5003081;28;20435;-84
2022/10/27 08:16:36;;;;;;;8.00;5.87;;;;;;;21.18;55.63;101098.09;5000170;28;20489;-82
2022/10/27 08:19:03;;;;;;;8.50;5.33;;;;;;;20.53;56.87;101096.09;5001715;28;20767;-84
2022/10/27 08:21:29;;;;;;;7.47;5.80;;;;;;;20.93;56.51;101102.13;5001711;28;21080;-86
2022/10/27 08:23:56;;;;;;;6.27;5.40;;;;;;;21.42;54.62;101098.78;5001748;28;21002;-84
2022/10/27 08:26:22;;;;;;;9.00;4.80;;;;;;;21.55;53.62;101103.56;5001685;28;20908;-86
2022/10/27 08:28:49;;;;;;;6.93;6.10;;;;;;;21.77;52.90;101091.69;5001327;28;20524;-87
2022/10/27 08:31:16;;;;;;;5.77;4.70;;;;;;;22.49;50.54;101087.06;5001281;28;20475;-87
2022/10/27 08:33:44;;;;;;;6.83;4.50;;;;;;;22.10;51.36;101084.84;5003277;28;20443;-85
2022/10/27 08:36:11;;;;;;;7.67;5.07;;;;;;;21.58;52.78;101093.16;5000525;28;20479;-86
2022/10/27 08:38:38;;;;;;;5.60;5.00;;;;;;;20.86;55.80;101086.56;5002826;28;20559;-85
2022/10/27 08:41:14;;;;;;;6.33;5.00;;;;;;;22.07;52.52;101088.81;5001650;28;20536;-88
2022/10/27 08:44:19;;;;;;;6.00;5.40;;;;;;;22.79;51.58;101096.91;5002703;28;20442;-86
2022/10/27 08:46:47;;;;;;;10.27;4.93;;;;;;;22.88;50.19;101093.84;4997646;28;20470;-86
2022/10/27 08:49:28;;;;;;;7.80;5.20;;;;;;;22.93;50.37;101087.75;4999566;28;20478;-86
2022/10/27 08:52:00;;;;;;;7.27;5.20;;;;;;;22.42;51.05;101075.28;4998532;28;21062;-86
2022/10/27 08:54:27;;;;;;;5.70;4.40;;;;;;;22.28;51.95;101074.34;4998950;28;20435;-86
2022/10/27 08:56:55;;;;;;;6.20;5.20;;;;;;;22.52;52.14;101078.50;4998511;28;20544;-85
2022/10/27 08:59:25;;;;;;;7.73;4.50;;;;;;;22.63;51.40;101081.72;4999111;28;20524;-86
2022/10/27 09:01:56;;;;;;;6.50;4.90;;;;;;;23.88;47.72;101077.00;4997478;28;20535;-86
2022/10/27 09:04:34;;;;;;;6.60;4.60;;;;;;;25.41;45.86;101070.41;5003032;28;20452;-87
2022/10/27 09:07:10;;;;;;;6.30;4.53;;;;;;;23.33;49.26;101087.13;5002011;28;20745;-79
2022/10/27 09:09:44;;;;;;;6.50;4.90;;;;;;;23.60;49.60;101088.06;5002834;28;20480;-79
2022/10/27 09:12:19;;;;;;;5.30;4.00;;;;;;;23.43;50.04;101085.69;5002488;28;20478;-79
2022/10/27 09:15:02;;;;;;;6.43;4.10;;;;;;;23.95;48.91;101079.75;5003090;28;20501;-79
2022/10/27 09:17:32;;;;;;;4.50;4.03;;;;;;;24.01;48.61;101076.19;5002704;28;20508;-79
2022/10/27 09:20:05;;;;;;;5.67;4.40;;;;;;;23.47;50.23;101077.94;5004709;28;20549;-78
2022/10/27 09:22:34;;;;;;;7.33;4.53;;;;;;;23.40;50.60;101080.66;5004140;28;20510;-79
2022/10/27 09:25:04;;;;;;;3.63;3.33;;;;;;;23.77;49.32;101063.94;5004712;28;20455;-78
2022/10/27 09:27:31;;;;;;;3.80;3.40;;;;;;;23.80;49.88;101066.22;5004878;28;20500;-78
2022/10/27 09:30:00;;;;;;;6.13;3.53;;;;;;;23.80;50.21;101063.50;5005419;28;20492;-79
2022/10/27 09:32:27;;;;;;;5.70;3.50;;;;;;;23.63;50.50;101065.81;5003814;28;20568;-79
2022/10/27 09:35:00;;;;;;;5.20;3.30;;;;;;;24.06;49.09;101066.31;5004946;28;20504;-79
2022/10/27 09:37:29;;;;;;;7.40;3.73;;;;;;;23.91;50.19;101067.56;5004185;28;20883;-79
2022/10/27 09:39:56;;;;;;;8.70;3.67;;;;;;;24.18;49.73;101071.13;5004333;28;20553;-79
2022/10/27 09:42:25;;;;;;;6.27;3.40;;;;;;;24.48;48.72;101057.00;5004385;28;20567;-80
2022/10/27 09:44:55;;;;;;;3.57;2.80;;;;;;;25.28;46.69;101062.28;5004928;28;20946;-78
2022/10/27 09:47:23;;;;;;;8.97;3.70;;;;;;;24.88;47.42;101062.44;5003653;28;20511;-80
2022/10/27 09:49:51;;;;;;;4.80;3.20;;;;;;;24.91;48.00;101062.84;5004490;28;20487;-79
2022/10/27 09:52:20;;;;;;;4.40;3.10;;;;;;;24.75;48.32;101050.44;5004174;28;20550;-78
2022/10/27 09:54:52;;;;;;;6.00;3.13;;;;;;;25.12;47.44;101056.22;5004201;28;20866;-79
2022/10/27 09:57:20;;;;;;;4.00;3.60;;;;;;;25.74;46.85;101051.06;5004314;28;20479;-79
2022/10/27 09:59:51;;;;;;;5.63;2.83;;;;;;;25.78;46.79;101051.44;5004765;28;20459;-79
2022/10/27 10:02:24;;;;;;;6.13;2.80;;;;;;;25.81;47.15;101047.41;5003073;28;20526;-80
2022/10/27 10:04:51;;;;;;;8.63;2.50;;;;;;;26.81;43.29;101047.34;5004521;28;20443;-79
2022/10/27 10:07:33;;;;;;;5.80;2.93;;;;;;;25.71;46.68;101047.91;5003880;28;20480;-79
2022/10/27 10:10:04;;;;;;;2.60;2.10;;;;;;;26.55;43.39;101044.91;5004355;28;21063;-79
2022/10/27 10:12:30;;;;;;;2.63;2.20;;;;;;;25.55;45.34;101041.91;5004041;28;20511;-78
2022/10/27 10:15:18;;;;;;;3.70;2.40;;;;;;;25.53;45.04;101037.69;5002599;28;20540;-78
2022/10/27 10:17:52;;;;;;;3.87;2.13;;;;;;;25.58;44.72;101040.63;5004754;28;20535;-78
2022/10/27 10:20:33;;;;;;;4.50;2.00;;;;;;;25.37;45.10;101037.16;5003376;28;21012;-78
2022/10/27 10:23:00;;;;;;;4.77;2.33;;;;;;;25.28;46.30;101037.66;5004113;28;20456;-78
2022/10/27 10:25:30;;;;;;;5.70;2.57;;;;;;;26.03;44.75;101032.31;5003901;28;20475;-78
2022/10/27 10:27:59;;;;;;;3.43;1.93;;;;;;;25.97;44.24;101032.34;5005060;28;20455;-78
2022/10/27 10:30:26;;;;;;;3.77;2.10;;;;;;;24.79;46.31;101021.63;5002146;28;20536;-78
2022/10/27 10:32:55;;;;;;;2.20;1.70;;;;;;;25.23;45.46;101023.75;5003911;28;20455;-78
2022/10/27 10:35:46;;;;;;;6.13;1.80;;;;;;;25.13;45.90;101016.84;5002064;28;20451;-78
2022/10/27 10:38:27;;;;;;;4.37;1.90;;;;;;;25.18;45.62;101014.28;4988268;28;20494;-78
2022/10/27 10:40:59;;;;;;;5.77;2.27;;;;;;;24.91;46.46;101007.25;5002808;28;20486;-78
2022/10/27 10:43:26;;;;;;;3.47;1.73;;;;;;;25.65;45.73;101000.34;5003434;28;20475;-78
2022/10/27 10:45:53;;;;;;;4.20;1.93;;;;;;;26.68;42.36;100990.75;5002052;28;20499;-78
2022/10/27 10:48:39;;;;;;;2.73;1.70;;;;;;;26.03;43.51;100999.41;5003243;28;20452;-78
2022/10/27 10:51:06;;;;;;;3.00;1.50;;;;;;;27.29;41.36;101000.94;5002484;28;20877;-79
2022/10/27 10:53:37;;;;;;;4.30;1.97;;;;;;;27.26;41.70;100994.00;5003499;28;20453;-79
2022/10/27 10:56:07;;;;;;;5.13;1.90;;;;;;;26.33;43.66;100990.47;5003110;28;20487;-80
2022/10/27 10:58:36;;;;;;;6.10;1.70;;;;;;;26.68;43.38;100984.41;5002252;28;20487;-79
2022/10/27 11:01:04;;;;;;;1.70;1.30;;;;;;;27.23;41.15;100984.31;5001727;28;20483;-79
2022/10/27 11:03:33;;;;;;;2.27;0.90;;;;;;;28.20;38.72;100976.88;5003042;28;20436;-80
2022/10/27 11:06:02;;;;;;;4.90;1.40;;;;;;;27.17;40.87;100985.25;5000955;28;20535;-79
2022/10/27 11:08:37;;;;;;;4.47;1.67;;;;;;;26.54;42.18;100977.38;5002323;28;20432;-80
2022/10/27 11:11:08;;;;;;;7.37;1.80;;;;;;;26.74;41.42;100979.94;5002225;28;20544;-80
2022/10/27 11:13:39;;;;;;;1.73;1.20;;;;;;;26.78;42.49;100975.66;5003142;28;20436;-79
2022/10/27 11:16:07;;;;;;;2.47;1.20;;;;;;;27.37;41.29;100976.75;5001894;28;20827;-79
2022/10/27 11:18:42;;;;;;;2.20;1.20;;;;;;;26.98;40.25;100972.66;5002301;28;20463;-79
2022/10/27 11:21:14;;;;;;;2.77;1.27;;;;;;;26.86;38.69;100958.88;5001229;28;20534;-79
2022/10/27 11:23:43;;;;;;;3.10;1.20;;;;;;;25.92;40.85;100957.13;5002392;28;20906;-79
2022/10/27 11:26:12;;;;;;;3.90;0.93;;;;;;;25.18;42.45;100956.81;5001789;28;20475;-78
2022/10/27 11:28:48;;;;;;;3.20;1.00;;;;;;;25.70;41.25;100955.84;5002793;28;20502;-79